sensor_id;sensor_type;location;lat;lon;timestamp;temperature;humidity
85378;DHT22;75782;48.632;10.230;2024-02-21T00:01:33;6.30;66.70
85378;DHT22;75782;48.632;10.230;2024-02-21T00:03:59;6.30;66.70
85378;DHT22;75782;48.632;10.230;2024-02-21T00:06:26;6.30;66.60
85378;DHT22;75782;48.632;10.230;2024-02-21T00:08:53;6.30;66.70
85378;DHT22;75782;48.632;10.230;2024-02-21T00:11:19;6.30;66.80
85378;DHT22;75782;48.632;10.230;2024-02-21T00:13:46;6.30;66.80
85378;DHT22;75782;48.632;10.230;2024-02-21T00:16:12;6.30;66.90
85378;DHT22;75782;48.632;10.230;2024-02-21T00:18:39;6.30;66.90
85378;DHT22;75782;48.632;10.230;2024-02-21T00:21:06;6.30;66.90
85378;DHT22;75782;48.632;10.230;2024-02-21T00:23:33;6.30;66.80
85378;DHT22;75782;48.632;10.230;2024-02-21T00:25:59;6.30;66.90
85378;DHT22;75782;48.632;10.230;2024-02-21T00:28:27;6.30;66.80
85378;DHT22;75782;48.632;10.230;2024-02-21T00:30:54;6.30;66.80
85378;DHT22;75782;48.632;10.230;2024-02-21T00:33:21;6.30;66.80
85378;DHT22;75782;48.632;10.230;2024-02-21T00:35:47;6.30;66.70
85378;DHT22;75782;48.632;10.230;2024-02-21T00:38:14;6.30;66.60
85378;DHT22;75782;48.632;10.230;2024-02-21T00:40:41;6.20;66.60
85378;DHT22;75782;48.632;10.230;2024-02-21T00:43:07;6.20;66.60
85378;DHT22;75782;48.632;10.230;2024-02-21T00:45:34;6.20;66.70
85378;DHT22;75782;48.632;10.230;2024-02-21T00:48:01;6.20;66.70
85378;DHT22;75782;48.632;10.230;2024-02-21T00:50:28;6.20;66.70
85378;DHT22;75782;48.632;10.230;2024-02-21T00:52:54;6.20;66.80
85378;DHT22;75782;48.632;10.230;2024-02-21T00:55:21;6.20;66.80
85378;DHT22;75782;48.632;10.230;2024-02-21T00:57:47;6.20;66.60
85378;DHT22;75782;48.632;10.230;2024-02-21T01:00:14;6.20;66.70
85378;DHT22;75782;48.632;10.230;2024-02-21T01:02:41;6.20;66.80
85378;DHT22;75782;48.632;10.230;2024-02-21T01:05:08;6.20;66.70
85378;DHT22;75782;48.632;10.230;2024-02-21T01:07:34;6.20;66.80
85378;DHT22;75782;48.632;10.230;2024-02-21T01:10:01;6.20;66.80
85378;DHT22;75782;48.632;10.230;2024-02-21T01:12:27;6.20;67.40
85378;DHT22;75782;48.632;10.230;2024-02-21T01:14:54;6.20;66.60
85378;DHT22;75782;48.632;10.230;2024-02-21T01:17:21;6.20;66.70
85378;DHT22;75782;48.632;10.230;2024-02-21T01:19:49;6.20;66.70
85378;DHT22;75782;48.632;10.230;2024-02-21T01:22:15;6.10;66.60
85378;DHT22;75782;48.632;10.230;2024-02-21T01:24:42;6.10;66.60
85378;DHT22;75782;48.632;10.230;2024-02-21T01:27:08;6.10;66.60
85378;DHT22;75782;48.632;10.230;2024-02-21T01:29:35;6.10;66.60
85378;DHT22;75782;48.632;10.230;2024-02-21T01:32:02;6.10;66.60
85378;DHT22;75782;48.632;10.230;2024-02-21T01:34:28;6.10;66.60
85378;DHT22;75782;48.632;10.230;2024-02-21T01:36:55;6.10;66.70
85378;DHT22;75782;48.632;10.230;2024-02-21T01:39:22;6.10;67.40
85378;DHT22;75782;48.632;10.230;2024-02-21T01:41:49;6.00;66.70
85378;DHT22;75782;48.632;10.230;2024-02-21T01:44:17;6.00;66.90
85378;DHT22;75782;48.632;10.230;2024-02-21T01:46:44;6.00;66.90
85378;DHT22;75782;48.632;10.230;2024-02-21T01:49:11;6.00;66.90
85378;DHT22;75782;48.632;10.230;2024-02-21T01:51:37;6.00;66.90
85378;DHT22;75782;48.632;10.230;2024-02-21T01:54:04;6.00;66.90
85378;DHT22;75782;48.632;10.230;2024-02-21T01:56:31;6.00;66.80
85378;DHT22;75782;48.632;10.230;2024-02-21T01:58:57;6.00;66.80
85378;DHT22;75782;48.632;10.230;2024-02-21T02:01:25;6.00;66.80
85378;DHT22;75782;48.632;10.230;2024-02-21T02:03:52;5.90;66.80
85378;DHT22;75782;48.632;10.230;2024-02-21T02:06:19;5.90;66.80
85378;DHT22;75782;48.632;10.230;2024-02-21T02:08:46;5.90;66.80
85378;DHT22;75782;48.632;10.230;2024-02-21T02:11:13;5.90;66.90
85378;DHT22;75782;48.632;10.230;2024-02-21T02:13:40;5.90;66.90
85378;DHT22;75782;48.632;10.230;2024-02-21T02:16:07;5.90;67.10
85378;DHT22;75782;48.632;10.230;2024-02-21T02:18:33;5.90;67.20
85378;DHT22;75782;48.632;10.230;2024-02-21T02:21:00;6.00;68.20
85378;DHT22;75782;48.632;10.230;2024-02-21T02:23:29;6.00;67.50
85378;DHT22;75782;48.632;10.230;2024-02-21T02:25:55;6.00;67.60
85378;DHT22;75782;48.632;10.230;2024-02-21T02:28:23;6.00;67.60
85378;DHT22;75782;48.632;10.230;2024-02-21T02:30:50;6.00;67.70
85378;DHT22;75782;48.632;10.230;2024-02-21T02:33:17;6.00;67.70
85378;DHT22;75782;48.632;10.230;2024-02-21T02:35:44;6.00;67.70
85378;DHT22;75782;48.632;10.230;2024-02-21T02:38:10;6.00;67.70
85378;DHT22;75782;48.632;10.230;2024-02-21T02:40:38;6.00;67.80
85378;DHT22;75782;48.632;10.230;2024-02-21T02:43:04;6.10;67.80
85378;DHT22;75782;48.632;10.230;2024-02-21T02:45:30;6.00;67.60
85378;DHT22;75782;48.632;10.230;2024-02-21T02:47:58;6.10;67.60
85378;DHT22;75782;48.632;10.230;2024-02-21T02:50:25;6.00;67.50
85378;DHT22;75782;48.632;10.230;2024-02-21T02:52:51;6.10;67.40
85378;DHT22;75782;48.632;10.230;2024-02-21T02:55:17;6.10;67.40
85378;DHT22;75782;48.632;10.230;2024-02-21T02:57:44;6.10;67.30
85378;DHT22;75782;48.632;10.230;2024-02-21T03:00:11;6.10;67.40
85378;DHT22;75782;48.632;10.230;2024-02-21T03:02:38;6.10;67.50
85378;DHT22;75782;48.632;10.230;2024-02-21T03:05:11;6.10;67.50
85378;DHT22;75782;48.632;10.230;2024-02-21T03:07:31;6.10;67.60
85378;DHT22;75782;48.632;10.230;2024-02-21T03:09:59;6.10;67.10
85378;DHT22;75782;48.632;10.230;2024-02-21T03:12:26;6.10;67.40
85378;DHT22;75782;48.632;10.230;2024-02-21T03:14:54;6.10;68.20
85378;DHT22;75782;48.632;10.230;2024-02-21T03:17:21;6.10;67.40
85378;DHT22;75782;48.632;10.230;2024-02-21T03:19:48;6.10;67.40
85378;DHT22;75782;48.632;10.230;2024-02-21T03:22:14;6.10;67.30
85378;DHT22;75782;48.632;10.230;2024-02-21T03:24:41;6.10;67.40
85378;DHT22;75782;48.632;10.230;2024-02-21T03:27:07;6.10;67.60
85378;DHT22;75782;48.632;10.230;2024-02-21T03:29:34;6.10;67.80
85378;DHT22;75782;48.632;10.230;2024-02-21T03:32:01;6.10;67.70
85378;DHT22;75782;48.632;10.230;2024-02-21T03:34:28;6.00;67.60
85378;DHT22;75782;48.632;10.230;2024-02-21T03:36:54;6.10;67.50
85378;DHT22;75782;48.632;10.230;2024-02-21T03:39:21;6.10;67.40
85378;DHT22;75782;48.632;10.230;2024-02-21T03:41:48;6.10;67.10
85378;DHT22;75782;48.632;10.230;2024-02-21T03:44:15;6.10;67.10
85378;DHT22;75782;48.632;10.230;2024-02-21T03:46:42;6.10;67.00
85378;DHT22;75782;48.632;10.230;2024-02-21T03:49:09;6.10;67.20
85378;DHT22;75782;48.632;10.230;2024-02-21T03:51:36;6.10;67.20
85378;DHT22;75782;48.632;10.230;2024-02-21T03:54:03;6.10;67.20
85378;DHT22;75782;48.632;10.230;2024-02-21T03:56:29;6.10;67.10
85378;DHT22;75782;48.632;10.230;2024-02-21T03:58:56;6.10;67.00
85378;DHT22;75782;48.632;10.230;2024-02-21T04:01:23;6.10;67.00
85378;DHT22;75782;48.632;10.230;2024-02-21T04:03:49;6.10;66.90
85378;DHT22;75782;48.632;10.230;2024-02-21T04:06:16;6.10;66.80
85378;DHT22;75782;48.632;10.230;2024-02-21T04:08:42;6.10;66.70
85378;DHT22;75782;48.632;10.230;2024-02-21T04:11:10;6.00;66.70
85378;DHT22;75782;48.632;10.230;2024-02-21T04:13:37;6.00;67.40
85378;DHT22;75782;48.632;10.230;2024-02-21T04:16:04;6.00;66.80
85378;DHT22;75782;48.632;10.230;2024-02-21T04:18:31;6.00;66.70
85378;DHT22;75782;48.632;10.230;2024-02-21T04:20:58;6.00;66.80
85378;DHT22;75782;48.632;10.230;2024-02-21T04:23:24;6.00;67.00
85378;DHT22;75782;48.632;10.230;2024-02-21T04:25:51;6.00;67.10
85378;DHT22;75782;48.632;10.230;2024-02-21T04:28:17;6.00;67.00
85378;DHT22;75782;48.632;10.230;2024-02-21T04:30:44;6.10;67.10
85378;DHT22;75782;48.632;10.230;2024-02-21T04:33:11;6.10;67.30
85378;DHT22;75782;48.632;10.230;2024-02-21T04:35:38;6.10;67.60
85378;DHT22;75782;48.632;10.230;2024-02-21T04:38:05;6.20;67.50
85378;DHT22;75782;48.632;10.230;2024-02-21T04:40:32;6.20;67.50
85378;DHT22;75782;48.632;10.230;2024-02-21T04:42:59;6.20;67.30
85378;DHT22;75782;48.632;10.230;2024-02-21T04:45:25;6.20;67.20
85378;DHT22;75782;48.632;10.230;2024-02-21T04:47:52;6.20;67.10
85378;DHT22;75782;48.632;10.230;2024-02-21T04:50:18;6.20;67.00
85378;DHT22;75782;48.632;10.230;2024-02-21T04:52:45;6.20;67.00
85378;DHT22;75782;48.632;10.230;2024-02-21T04:55:11;6.20;67.20
85378;DHT22;75782;48.632;10.230;2024-02-21T04:57:39;6.30;67.30
85378;DHT22;75782;48.632;10.230;2024-02-21T05:00:07;6.30;67.90
85378;DHT22;75782;48.632;10.230;2024-02-21T05:02:34;6.20;67.10
85378;DHT22;75782;48.632;10.230;2024-02-21T05:05:00;6.30;67.40
85378;DHT22;75782;48.632;10.230;2024-02-21T05:07:27;6.30;67.50
85378;DHT22;75782;48.632;10.230;2024-02-21T05:09:54;6.30;67.70
85378;DHT22;75782;48.632;10.230;2024-02-21T05:12:20;6.30;67.50
85378;DHT22;75782;48.632;10.230;2024-02-21T05:14:47;6.20;67.40
85378;DHT22;75782;48.632;10.230;2024-02-21T05:17:14;6.20;67.60
85378;DHT22;75782;48.632;10.230;2024-02-21T05:19:41;6.20;67.60
85378;DHT22;75782;48.632;10.230;2024-02-21T05:22:08;6.10;67.20
85378;DHT22;75782;48.632;10.230;2024-02-21T05:24:35;6.10;67.50
85378;DHT22;75782;48.632;10.230;2024-02-21T05:27:03;6.00;67.00
85378;DHT22;75782;48.632;10.230;2024-02-21T05:29:29;6.00;67.00
85378;DHT22;75782;48.632;10.230;2024-02-21T05:31:56;6.00;66.90
85378;DHT22;75782;48.632;10.230;2024-02-21T05:34:23;5.90;66.90
85378;DHT22;75782;48.632;10.230;2024-02-21T05:36:49;5.90;66.90
85378;DHT22;75782;48.632;10.230;2024-02-21T05:39:16;5.80;67.20
85378;DHT22;75782;48.632;10.230;2024-02-21T05:41:44;5.70;67.10
85378;DHT22;75782;48.632;10.230;2024-02-21T05:44:11;5.70;67.10
85378;DHT22;75782;48.632;10.230;2024-02-21T05:46:38;5.60;66.80
85378;DHT22;75782;48.632;10.230;2024-02-21T05:49:05;5.60;66.80
85378;DHT22;75782;48.632;10.230;2024-02-21T05:51:33;5.60;66.70
85378;DHT22;75782;48.632;10.230;2024-02-21T05:53:59;5.50;66.60
85378;DHT22;75782;48.632;10.230;2024-02-21T05:56:26;5.50;66.60
85378;DHT22;75782;48.632;10.230;2024-02-21T05:58:52;5.50;66.60
85378;DHT22;75782;48.632;10.230;2024-02-21T06:01:19;5.40;66.60
85378;DHT22;75782;48.632;10.230;2024-02-21T06:03:45;5.40;66.60
85378;DHT22;75782;48.632;10.230;2024-02-21T06:06:12;5.30;66.40
85378;DHT22;75782;48.632;10.230;2024-02-21T06:08:40;5.20;66.40
85378;DHT22;75782;48.632;10.230;2024-02-21T06:11:07;5.20;66.70
85378;DHT22;75782;48.632;10.230;2024-02-21T06:13:37;5.20;66.70
85378;DHT22;75782;48.632;10.230;2024-02-21T06:16:00;5.20;66.80
85378;DHT22;75782;48.632;10.230;2024-02-21T06:18:26;5.20;67.10
85378;DHT22;75782;48.632;10.230;2024-02-21T06:20:53;5.10;66.90
85378;DHT22;75782;48.632;10.230;2024-02-21T06:23:20;5.10;66.80
85378;DHT22;75782;48.632;10.230;2024-02-21T06:25:46;5.10;67.00
85378;DHT22;75782;48.632;10.230;2024-02-21T06:28:13;5.10;67.00
85378;DHT22;75782;48.632;10.230;2024-02-21T06:30:40;5.00;67.00
85378;DHT22;75782;48.632;10.230;2024-02-21T06:33:08;5.00;67.10
85378;DHT22;75782;48.632;10.230;2024-02-21T06:35:35;5.10;67.30
85378;DHT22;75782;48.632;10.230;2024-02-21T06:38:02;5.20;67.50
85378;DHT22;75782;48.632;10.230;2024-02-21T06:40:30;5.20;67.30
85378;DHT22;75782;48.632;10.230;2024-02-21T06:42:56;5.10;67.20
85378;DHT22;75782;48.632;10.230;2024-02-21T06:45:23;5.20;67.20
85378;DHT22;75782;48.632;10.230;2024-02-21T06:47:49;5.20;67.00
85378;DHT22;75782;48.632;10.230;2024-02-21T06:50:16;5.30;67.10
85378;DHT22;75782;48.632;10.230;2024-02-21T06:52:43;5.40;67.30
85378;DHT22;75782;48.632;10.230;2024-02-21T06:55:09;5.70;66.40
85378;DHT22;75782;48.632;10.230;2024-02-21T06:57:36;5.80;66.10
85378;DHT22;75782;48.632;10.230;2024-02-21T07:00:03;8.90;60.50
85378;DHT22;75782;48.632;10.230;2024-02-21T07:02:30;8.90;60.10
85378;DHT22;75782;48.632;10.230;2024-02-21T07:04:57;10.10;55.20
85378;DHT22;75782;48.632;10.230;2024-02-21T07:07:23;11.80;52.10
85378;DHT22;75782;48.632;10.230;2024-02-21T07:09:50;13.20;48.20
85378;DHT22;75782;48.632;10.230;2024-02-21T07:12:17;15.30;44.10
85378;DHT22;75782;48.632;10.230;2024-02-21T07:14:45;17.00;41.50
85378;DHT22;75782;48.632;10.230;2024-02-21T07:17:12;17.20;39.10
85378;DHT22;75782;48.632;10.230;2024-02-21T07:19:39;18.00;38.50
85378;DHT22;75782;48.632;10.230;2024-02-21T07:22:06;17.90;38.40
85378;DHT22;75782;48.632;10.230;2024-02-21T07:24:33;18.10;38.10
85378;DHT22;75782;48.632;10.230;2024-02-21T07:26:59;19.80;35.50
85378;DHT22;75782;48.632;10.230;2024-02-21T07:29:26;22.10;31.10
85378;DHT22;75782;48.632;10.230;2024-02-21T07:31:54;23.10;30.30
85378;DHT22;75782;48.632;10.230;2024-02-21T07:34:20;23.10;30.30
85378;DHT22;75782;48.632;10.230;2024-02-21T07:36:47;23.60;29.50
85378;DHT22;75782;48.632;10.230;2024-02-21T07:39:14;24.40;28.40
85378;DHT22;75782;48.632;10.230;2024-02-21T07:41:40;24.90;28.00
85378;DHT22;75782;48.632;10.230;2024-02-21T07:44:07;25.20;27.50
85378;DHT22;75782;48.632;10.230;2024-02-21T07:46:34;26.00;26.00
85378;DHT22;75782;48.632;10.230;2024-02-21T07:49:01;26.00;26.00
85378;DHT22;75782;48.632;10.230;2024-02-21T07:51:28;25.80;25.90
85378;DHT22;75782;48.632;10.230;2024-02-21T07:53:54;25.20;26.20
85378;DHT22;75782;48.632;10.230;2024-02-21T07:56:21;24.30;27.00
85378;DHT22;75782;48.632;10.230;2024-02-21T07:58:48;23.90;27.40
85378;DHT22;75782;48.632;10.230;2024-02-21T08:01:19;23.90;27.30
85378;DHT22;75782;48.632;10.230;2024-02-21T08:03:45;24.90;26.90
85378;DHT22;75782;48.632;10.230;2024-02-21T08:06:12;25.50;26.00
85378;DHT22;75782;48.632;10.230;2024-02-21T08:08:38;26.30;25.50
85378;DHT22;75782;48.632;10.230;2024-02-21T08:11:05;26.80;25.00
85378;DHT22;75782;48.632;10.230;2024-02-21T08:13:31;27.00;24.50
85378;DHT22;75782;48.632;10.230;2024-02-21T08:15:58;26.80;24.30
85378;DHT22;75782;48.632;10.230;2024-02-21T08:18:25;26.70;24.80
85378;DHT22;75782;48.632;10.230;2024-02-21T08:20:52;27.20;24.50
85378;DHT22;75782;48.632;10.230;2024-02-21T08:23:19;27.20;24.20
85378;DHT22;75782;48.632;10.230;2024-02-21T08:25:45;27.30;23.80
85378;DHT22;75782;48.632;10.230;2024-02-21T08:28:12;27.30;23.90
85378;DHT22;75782;48.632;10.230;2024-02-21T08:30:39;26.70;24.50
85378;DHT22;75782;48.632;10.230;2024-02-21T08:33:06;26.70;24.40
85378;DHT22;75782;48.632;10.230;2024-02-21T08:35:33;24.40;26.00
85378;DHT22;75782;48.632;10.230;2024-02-21T08:38:00;24.40;26.20
85378;DHT22;75782;48.632;10.230;2024-02-21T08:40:26;23.10;27.50
85378;DHT22;75782;48.632;10.230;2024-02-21T08:42:54;20.80;30.00
85378;DHT22;75782;48.632;10.230;2024-02-21T08:45:20;20.70;29.90
85378;DHT22;75782;48.632;10.230;2024-02-21T08:47:47;19.90;31.50
85378;DHT22;75782;48.632;10.230;2024-02-21T08:50:14;19.30;32.60
85378;DHT22;75782;48.632;10.230;2024-02-21T08:52:40;18.70;33.60
85378;DHT22;75782;48.632;10.230;2024-02-21T08:55:07;18.20;34.80
85378;DHT22;75782;48.632;10.230;2024-02-21T08:57:33;18.00;35.10
85378;DHT22;75782;48.632;10.230;2024-02-21T09:00:00;18.20;34.70
85378;DHT22;75782;48.632;10.230;2024-02-21T09:02:27;18.50;34.50
85378;DHT22;75782;48.632;10.230;2024-02-21T09:04:53;19.10;33.90
85378;DHT22;75782;48.632;10.230;2024-02-21T09:07:20;19.60;33.70
85378;DHT22;75782;48.632;10.230;2024-02-21T09:09:46;20.10;32.70
85378;DHT22;75782;48.632;10.230;2024-02-21T09:12:13;20.40;32.00
85378;DHT22;75782;48.632;10.230;2024-02-21T09:14:40;20.50;31.60
85378;DHT22;75782;48.632;10.230;2024-02-21T09:17:06;20.70;32.10
85378;DHT22;75782;48.632;10.230;2024-02-21T09:19:33;20.70;31.60
85378;DHT22;75782;48.632;10.230;2024-02-21T09:21:59;20.70;32.20
85378;DHT22;75782;48.632;10.230;2024-02-21T09:24:27;20.60;31.80
85378;DHT22;75782;48.632;10.230;2024-02-21T09:26:53;20.60;32.60
85378;DHT22;75782;48.632;10.230;2024-02-21T09:29:20;20.60;32.20
85378;DHT22;75782;48.632;10.230;2024-02-21T09:31:46;20.30;32.60
85378;DHT22;75782;48.632;10.230;2024-02-21T09:34:13;19.90;32.70
85378;DHT22;75782;48.632;10.230;2024-02-21T09:36:40;19.10;34.70
85378;DHT22;75782;48.632;10.230;2024-02-21T09:39:07;19.10;34.70
85378;DHT22;75782;48.632;10.230;2024-02-21T09:41:34;18.70;35.00
85378;DHT22;75782;48.632;10.230;2024-02-21T09:44:00;18.50;35.40
85378;DHT22;75782;48.632;10.230;2024-02-21T09:46:39;17.80;36.80
85378;DHT22;75782;48.632;10.230;2024-02-21T09:51:49;17.60;37.50
85378;DHT22;75782;48.632;10.230;2024-02-21T09:54:15;17.30;37.50
85378;DHT22;75782;48.632;10.230;2024-02-21T09:56:44;16.90;38.00
85378;DHT22;75782;48.632;10.230;2024-02-21T09:59:09;16.90;38.00
85378;DHT22;75782;48.632;10.230;2024-02-21T10:01:35;16.70;38.80
85378;DHT22;75782;48.632;10.230;2024-02-21T10:04:02;16.60;38.80
85378;DHT22;75782;48.632;10.230;2024-02-21T10:06:29;16.40;39.30
85378;DHT22;75782;48.632;10.230;2024-02-21T10:08:56;16.00;40.30
85378;DHT22;75782;48.632;10.230;2024-02-21T10:11:23;16.00;40.30
85378;DHT22;75782;48.632;10.230;2024-02-21T10:13:49;15.90;40.40
85378;DHT22;75782;48.632;10.230;2024-02-21T10:16:16;15.90;40.70
85378;DHT22;75782;48.632;10.230;2024-02-21T10:18:43;15.60;41.00
85378;DHT22;75782;48.632;10.230;2024-02-21T10:21:11;15.60;41.80
85378;DHT22;75782;48.632;10.230;2024-02-21T10:23:45;15.60;41.20
85378;DHT22;75782;48.632;10.230;2024-02-21T10:26:11;15.60;41.20
85378;DHT22;75782;48.632;10.230;2024-02-21T10:28:37;15.60;41.20
85378;DHT22;75782;48.632;10.230;2024-02-21T10:31:04;15.80;41.00
85378;DHT22;75782;48.632;10.230;2024-02-21T10:33:31;15.90;41.00
85378;DHT22;75782;48.632;10.230;2024-02-21T10:36:07;15.90;41.30
85378;DHT22;75782;48.632;10.230;2024-02-21T10:38:35;15.90;41.20
85378;DHT22;75782;48.632;10.230;2024-02-21T10:41:01;15.90;41.10
85378;DHT22;75782;48.632;10.230;2024-02-21T10:43:27;15.90;41.50
85378;DHT22;75782;48.632;10.230;2024-02-21T10:45:54;15.90;41.40
85378;DHT22;75782;48.632;10.230;2024-02-21T10:48:22;15.90;41.50
85378;DHT22;75782;48.632;10.230;2024-02-21T10:50:57;16.00;41.40
85378;DHT22;75782;48.632;10.230;2024-02-21T10:56:29;16.20;41.10
85378;DHT22;75782;48.632;10.230;2024-02-21T10:58:56;16.20;40.80
85378;DHT22;75782;48.632;10.230;2024-02-21T11:01:22;16.20;40.20
85378;DHT22;75782;48.632;10.230;2024-02-21T11:03:49;16.10;41.10
85378;DHT22;75782;48.632;10.230;2024-02-21T11:06:15;16.10;40.60
85378;DHT22;75782;48.632;10.230;2024-02-21T11:08:41;16.10;40.40
85378;DHT22;75782;48.632;10.230;2024-02-21T11:11:08;16.00;40.30
85378;DHT22;75782;48.632;10.230;2024-02-21T11:13:35;16.10;40.50
85378;DHT22;75782;48.632;10.230;2024-02-21T11:16:08;16.00;40.70
85378;DHT22;75782;48.632;10.230;2024-02-21T11:18:34;16.00;40.40
85378;DHT22;75782;48.632;10.230;2024-02-21T11:21:00;16.00;40.60
85378;DHT22;75782;48.632;10.230;2024-02-21T11:23:27;16.00;41.00
85378;DHT22;75782;48.632;10.230;2024-02-21T11:26:03;16.00;40.80
85378;DHT22;75782;48.632;10.230;2024-02-21T11:28:25;16.00;40.50
85378;DHT22;75782;48.632;10.230;2024-02-21T11:30:48;16.10;40.00
85378;DHT22;75782;48.632;10.230;2024-02-21T11:33:15;16.00;39.90
85378;DHT22;75782;48.632;10.230;2024-02-21T11:35:41;16.00;40.50
85378;DHT22;75782;48.632;10.230;2024-02-21T11:38:10;16.10;40.60
85378;DHT22;75782;48.632;10.230;2024-02-21T11:40:38;16.20;40.40
85378;DHT22;75782;48.632;10.230;2024-02-21T11:43:03;16.20;40.40
85378;DHT22;75782;48.632;10.230;2024-02-21T11:45:30;16.20;40.60
85378;DHT22;75782;48.632;10.230;2024-02-21T11:47:57;16.30;40.30
85378;DHT22;75782;48.632;10.230;2024-02-21T11:50:24;16.40;39.60
85378;DHT22;75782;48.632;10.230;2024-02-21T11:52:54;16.40;39.30
85378;DHT22;75782;48.632;10.230;2024-02-21T11:55:19;16.30;39.50
85378;DHT22;75782;48.632;10.230;2024-02-21T11:57:47;16.30;39.50
85378;DHT22;75782;48.632;10.230;2024-02-21T12:00:14;16.20;39.50
85378;DHT22;75782;48.632;10.230;2024-02-21T12:02:40;16.20;40.10
85378;DHT22;75782;48.632;10.230;2024-02-21T12:05:07;16.10;40.20
85378;DHT22;75782;48.632;10.230;2024-02-21T12:07:35;16.00;39.50
85378;DHT22;75782;48.632;10.230;2024-02-21T12:10:00;15.90;39.60
85378;DHT22;75782;48.632;10.230;2024-02-21T12:12:27;15.90;39.60
85378;DHT22;75782;48.632;10.230;2024-02-21T12:14:56;15.80;39.60
85378;DHT22;75782;48.632;10.230;2024-02-21T12:17:22;15.70;39.70
85378;DHT22;75782;48.632;10.230;2024-02-21T12:19:50;15.70;40.10
85378;DHT22;75782;48.632;10.230;2024-02-21T12:22:19;15.70;40.10
85378;DHT22;75782;48.632;10.230;2024-02-21T12:24:46;15.60;40.00
85378;DHT22;75782;48.632;10.230;2024-02-21T12:27:13;15.60;39.80
85378;DHT22;75782;48.632;10.230;2024-02-21T12:29:39;15.60;39.30
85378;DHT22;75782;48.632;10.230;2024-02-21T12:32:06;15.60;39.50
85378;DHT22;75782;48.632;10.230;2024-02-21T12:34:32;15.50;39.50
85378;DHT22;75782;48.632;10.230;2024-02-21T12:36:59;15.30;39.80
85378;DHT22;75782;48.632;10.230;2024-02-21T12:39:26;15.30;39.80
85378;DHT22;75782;48.632;10.230;2024-02-21T12:41:54;15.10;39.80
85378;DHT22;75782;48.632;10.230;2024-02-21T12:44:21;15.10;39.80
85378;DHT22;75782;48.632;10.230;2024-02-21T12:46:47;15.10;40.20
85378;DHT22;75782;48.632;10.230;2024-02-21T12:49:14;14.90;40.40
85378;DHT22;75782;48.632;10.230;2024-02-21T12:51:42;14.80;40.70
85378;DHT22;75782;48.632;10.230;2024-02-21T12:54:08;14.80;40.70
85378;DHT22;75782;48.632;10.230;2024-02-21T12:56:35;14.70;41.00
85378;DHT22;75782;48.632;10.230;2024-02-21T12:59:02;14.60;41.50
85378;DHT22;75782;48.632;10.230;2024-02-21T13:01:29;14.50;40.20
85378;DHT22;75782;48.632;10.230;2024-02-21T13:03:56;14.50;40.70
85378;DHT22;75782;48.632;10.230;2024-02-21T13:06:23;14.40;40.70
85378;DHT22;75782;48.632;10.230;2024-02-21T13:08:50;14.50;41.10
85378;DHT22;75782;48.632;10.230;2024-02-21T13:11:16;14.50;41.60
85378;DHT22;75782;48.632;10.230;2024-02-21T13:13:43;14.50;40.60
85378;DHT22;75782;48.632;10.230;2024-02-21T13:16:09;14.50;41.50
85378;DHT22;75782;48.632;10.230;2024-02-21T13:18:36;14.50;40.70
85378;DHT22;75782;48.632;10.230;2024-02-21T13:21:05;14.50;40.70
85378;DHT22;75782;48.632;10.230;2024-02-21T13:23:33;14.50;40.90
85378;DHT22;75782;48.632;10.230;2024-02-21T13:26:00;14.50;41.00
85378;DHT22;75782;48.632;10.230;2024-02-21T13:28:27;14.50;40.20
85378;DHT22;75782;48.632;10.230;2024-02-21T13:30:55;14.50;39.80
85378;DHT22;75782;48.632;10.230;2024-02-21T13:33:21;14.50;39.70
85378;DHT22;75782;48.632;10.230;2024-02-21T13:35:48;14.50;39.50
85378;DHT22;75782;48.632;10.230;2024-02-21T13:38:14;14.40;40.20
85378;DHT22;75782;48.632;10.230;2024-02-21T13:40:41;14.50;40.60
85378;DHT22;75782;48.632;10.230;2024-02-21T13:43:08;14.40;40.50
85378;DHT22;75782;48.632;10.230;2024-02-21T13:45:34;14.40;40.60
85378;DHT22;75782;48.632;10.230;2024-02-21T13:48:01;14.40;41.20
85378;DHT22;75782;48.632;10.230;2024-02-21T13:50:30;14.40;41.50
85378;DHT22;75782;48.632;10.230;2024-02-21T13:52:56;14.40;40.70
85378;DHT22;75782;48.632;10.230;2024-02-21T13:55:23;14.30;40.60
85378;DHT22;75782;48.632;10.230;2024-02-21T13:57:52;14.20;40.90
85378;DHT22;75782;48.632;10.230;2024-02-21T14:00:19;14.20;40.70
85378;DHT22;75782;48.632;10.230;2024-02-21T14:02:46;14.10;41.10
85378;DHT22;75782;48.632;10.230;2024-02-21T14:05:12;14.10;41.50
85378;DHT22;75782;48.632;10.230;2024-02-21T14:07:39;14.00;41.70
85378;DHT22;75782;48.632;10.230;2024-02-21T14:10:06;14.00;41.30
85378;DHT22;75782;48.632;10.230;2024-02-21T14:12:33;13.90;41.50
85378;DHT22;75782;48.632;10.230;2024-02-21T14:15:00;13.90;41.40
85378;DHT22;75782;48.632;10.230;2024-02-21T14:17:26;13.80;41.20
85378;DHT22;75782;48.632;10.230;2024-02-21T14:19:53;13.80;41.10
85378;DHT22;75782;48.632;10.230;2024-02-21T14:22:20;13.70;41.50
85378;DHT22;75782;48.632;10.230;2024-02-21T14:24:47;13.70;41.20
85378;DHT22;75782;48.632;10.230;2024-02-21T14:27:14;13.70;41.10
85378;DHT22;75782;48.632;10.230;2024-02-21T14:29:41;13.70;41.00
85378;DHT22;75782;48.632;10.230;2024-02-21T14:32:07;13.60;41.30
85378;DHT22;75782;48.632;10.230;2024-02-21T14:34:35;13.50;41.50
85378;DHT22;75782;48.632;10.230;2024-02-21T14:37:01;13.50;41.50
85378;DHT22;75782;48.632;10.230;2024-02-21T14:39:28;13.50;42.10
85378;DHT22;75782;48.632;10.230;2024-02-21T14:41:54;13.50;42.20
85378;DHT22;75782;48.632;10.230;2024-02-21T14:44:21;13.40;42.20
85378;DHT22;75782;48.632;10.230;2024-02-21T14:46:48;13.40;42.50
85378;DHT22;75782;48.632;10.230;2024-02-21T14:49:15;13.30;42.50
85378;DHT22;75782;48.632;10.230;2024-02-21T14:51:42;13.20;42.60
85378;DHT22;75782;48.632;10.230;2024-02-21T14:54:09;13.20;42.60
85378;DHT22;75782;48.632;10.230;2024-02-21T14:56:35;13.20;42.70
85378;DHT22;75782;48.632;10.230;2024-02-21T14:59:02;13.20;42.50
85378;DHT22;75782;48.632;10.230;2024-02-21T15:01:29;13.10;42.70
85378;DHT22;75782;48.632;10.230;2024-02-21T15:03:56;13.10;42.70
85378;DHT22;75782;48.632;10.230;2024-02-21T15:06:23;13.10;43.10
85378;DHT22;75782;48.632;10.230;2024-02-21T15:08:49;13.10;42.90
85378;DHT22;75782;48.632;10.230;2024-02-21T15:11:17;13.00;43.00
85378;DHT22;75782;48.632;10.230;2024-02-21T15:13:43;13.00;43.00
85378;DHT22;75782;48.632;10.230;2024-02-21T15:16:10;13.00;43.30
85378;DHT22;75782;48.632;10.230;2024-02-21T15:18:36;13.00;43.20
85378;DHT22;75782;48.632;10.230;2024-02-21T15:21:03;12.90;43.10
85378;DHT22;75782;48.632;10.230;2024-02-21T15:23:30;12.90;43.80
85378;DHT22;75782;48.632;10.230;2024-02-21T15:25:56;12.80;43.30